Time;durP1;ratioP1;P1;durP2;ratioP2;P2;SDS_P1;SDS_P2;PMS_P1;PMS_P2;Temp;Humidity;BMP_temperature;BMP_pressure;BME280_temperature;BME280_humidity;BME280_pressure;Samples;Min_cycle;Max_cycle;Signal;HPM_P1;HPM_P2
2021/09/04 00:01:40;;;;;;;3.15;2.85;;;23.70;45.50;;;;;;5027860;28;20217;-50
2021/09/04 00:04:06;;;;;;;2.80;2.60;;;23.70;45.50;;;;;;5030556;28;20207;-50
2021/09/04 00:06:33;;;;;;;3.05;2.78;;;23.70;45.50;;;;;;5028822;28;20234;-49
2021/09/04 00:08:59;;;;;;;3.00;2.70;;;23.70;45.50;;;;;;5029014;28;20206;-45
2021/09/04 00:11:26;;;;;;;3.60;2.80;;;23.70;45.50;;;;;;5030726;28;20209;-45
2021/09/04 00:13:52;;;;;;;4.55;2.53;;;23.60;45.40;;;;;;5029888;28;20665;-45
2021/09/04 00:16:19;;;;;;;3.10;2.50;;;23.60;45.50;;;;;;5031140;28;20214;-48
2021/09/04 00:18:45;;;;;;;2.80;2.17;;;23.60;45.40;;;;;;5030157;28;20293;-50
2021/09/04 00:21:12;;;;;;;2.55;2.35;;;23.70;45.50;;;;;;5030299;28;20681;-46
2021/09/04 00:23:38;;;;;;;2.70;2.50;;;23.60;45.40;;;;;;5029008;28;20683;-44
2021/09/04 00:26:05;;;;;;;2.63;2.42;;;23.70;45.50;;;;;;5030000;28;20665;-44
2021/09/04 00:28:31;;;;;;;2.63;2.42;;;23.60;45.40;;;;;;5029833;28;20206;-43
2021/09/04 00:30:58;;;;;;;3.30;2.90;;;23.60;45.40;;;;;;5030260;28;20217;-44
2021/09/04 00:33:24;;;;;;;2.88;2.67;;;23.60;45.40;;;;;;5029888;28;20205;-43
2021/09/04 00:35:50;;;;;;;4.03;2.70;;;23.70;45.50;;;;;;5028565;28;20754;-43
2021/09/04 00:38:17;;;;;;;2.72;2.53;;;23.60;45.40;;;;;;5025946;28;20669;-43
2021/09/04 00:40:43;;;;;;;3.67;2.47;;;23.60;45.40;;;;;;5029159;28;21238;-44
2021/09/04 00:43:10;;;;;;;2.95;2.65;;;23.70;45.50;;;;;;5030565;28;20638;-42
2021/09/04 00:45:36;;;;;;;2.80;2.60;;;23.60;45.40;;;;;;5029109;28;20698;-46
2021/09/04 00:48:03;;;;;;;2.90;2.63;;;23.60;45.40;;;;;;5027881;28;20654;-44
2021/09/04 00:50:29;;;;;;;2.90;2.38;;;23.60;45.40;;;;;;5030058;28;20659;-45
2021/09/04 00:52:55;;;;;;;2.90;2.65;;;23.60;45.40;;;;;;5030310;28;20590;-43
2021/09/04 00:55:22;;;;;;;2.72;2.38;;;23.60;45.40;;;;;;5030576;28;20585;-43
2021/09/04 00:57:48;;;;;;;2.65;2.45;;;23.70;45.50;;;;;;5028471;28;20860;-43
2021/09/04 01:00:15;;;;;;;2.80;2.60;;;23.60;45.40;;;;;;5027601;28;20565;-45
2021/09/04 01:02:41;;;;;;;4.05;2.60;;;23.60;45.40;;;;;;5030450;28;20543;-44
2021/09/04 01:05:08;;;;;;;2.53;2.33;;;23.60;45.40;;;;;;5030148;28;20586;-44
2021/09/04 01:07:34;;;;;;;3.08;2.08;;;23.60;45.40;;;;;;5017943;28;20250;-47
2021/09/04 01:10:01;;;;;;;3.13;2.40;;;23.60;45.40;;;;;;5027051;28;20198;-51
2021/09/04 01:12:27;;;;;;;2.63;2.42;;;23.60;45.40;;;;;;5029766;28;20234;-46
2021/09/04 01:14:54;;;;;;;2.47;2.28;;;23.60;45.40;;;;;;5029807;28;20326;-50
2021/09/04 01:17:20;;;;;;;3.13;2.40;;;23.60;45.40;;;;;;5030024;28;20332;-51
2021/09/04 01:19:46;;;;;;;2.92;2.42;;;23.60;45.40;;;;;;5028142;28;20205;-45
2021/09/04 01:22:13;;;;;;;3.88;2.70;;;23.60;45.40;;;;;;5030160;28;20202;-45
2021/09/04 01:24:39;;;;;;;2.50;2.30;;;23.60;45.40;;;;;;5029218;28;20199;-46
2021/09/04 01:27:06;;;;;;;2.72;2.33;;;23.60;45.40;;;;;;5029902;28;20686;-44
2021/09/04 01:29:32;;;;;;;2.88;2.67;;;23.60;45.40;;;;;;5028435;28;20556;-46
2021/09/04 01:31:59;;;;;;;2.60;2.38;;;23.60;45.40;;;;;;5029696;28;20545;-48
2021/09/04 01:34:25;;;;;;;2.80;2.58;;;23.60;45.40;;;;;;5028089;28;20530;-43
2021/09/04 01:36:52;;;;;;;3.15;2.88;;;23.60;45.40;;;;;;5029056;28;20623;-45
2021/09/04 01:39:18;;;;;;;2.60;2.40;;;23.60;45.40;;;;;;5026448;28;20590;-43
2021/09/04 01:41:44;;;;;;;2.80;2.60;;;23.70;45.50;;;;;;5029604;28;20225;-45
2021/09/04 01:44:11;;;;;;;2.90;2.60;;;23.70;45.50;;;;;;5026758;28;20253;-49
2021/09/04 01:46:38;;;;;;;2.47;2.28;;;23.60;45.40;;;;;;5029559;28;20260;-50
2021/09/04 01:49:04;;;;;;;2.55;2.33;;;23.60;45.40;;;;;;5027904;28;20658;-48
2021/09/04 01:51:31;;;;;;;3.00;2.70;;;23.70;45.50;;;;;;5028786;28;20309;-46
2021/09/04 01:53:57;;;;;;;3.10;2.80;;;23.60;45.40;;;;;;5028312;28;20202;-45
2021/09/04 01:56:24;;;;;;;2.50;2.30;;;23.60;45.40;;;;;;5028113;28;20226;-43
2021/09/04 01:58:50;;;;;;;2.57;2.37;;;23.60;45.40;;;;;;5002639;23;1117175;-42
2021/09/04 02:01:16;;;;;;;2.70;2.50;;;23.60;45.40;;;;;;5033176;28;20595;-41
2021/09/04 02:03:43;;;;;;;2.72;2.53;;;23.60;45.40;;;;;;5033248;28;20559;-50
2021/09/04 02:06:09;;;;;;;2.80;2.50;;;23.60;45.40;;;;;;5032964;28;20702;-41
2021/09/04 02:08:36;;;;;;;2.55;2.25;;;23.60;45.40;;;;;;5033761;28;20195;-42
2021/09/04 02:11:02;;;;;;;2.80;2.60;;;23.60;45.30;;;;;;5032601;28;20202;-49
2021/09/04 02:13:29;;;;;;;2.60;2.40;;;23.60;45.40;;;;;;5032583;28;20493;-49
2021/09/04 02:15:55;;;;;;;2.42;2.22;;;23.60;45.40;;;;;;5031344;28;20591;-44
2021/09/04 02:18:21;;;;;;;2.83;2.63;;;23.60;45.40;;;;;;5033672;28;20216;-44
2021/09/04 02:20:48;;;;;;;2.70;2.50;;;23.60;45.40;;;;;;5032023;28;20214;-42
2021/09/04 02:23:14;;;;;;;2.70;2.45;;;23.60;45.40;;;;;;5033629;28;20207;-40
2021/09/04 02:25:41;;;;;;;2.83;2.63;;;23.60;45.40;;;;;;5032784;28;20222;-48
2021/09/04 02:28:07;;;;;;;2.97;2.65;;;23.60;45.40;;;;;;5033346;28;20242;-46
2021/09/04 02:30:34;;;;;;;2.85;2.58;;;23.60;45.40;;;;;;5032791;28;20205;-47
2021/09/04 02:33:00;;;;;;;2.80;2.60;;;23.60;45.40;;;;;;5031731;28;20198;-51
2021/09/04 02:35:27;;;;;;;2.60;2.40;;;23.70;45.50;;;;;;5033914;28;20218;-43
2021/09/04 02:37:53;;;;;;;3.92;2.13;;;23.60;45.40;;;;;;5028874;28;20213;-48
2021/09/04 02:40:19;;;;;;;2.60;2.40;;;23.60;45.40;;;;;;5031460;28;20213;-48
2021/09/04 02:42:46;;;;;;;2.67;2.47;;;23.60;45.50;;;;;;5033557;28;20207;-46
2021/09/04 02:45:12;;;;;;;2.70;2.50;;;23.60;45.50;;;;;;5031778;28;20312;-46
2021/09/04 02:47:40;;;;;;;2.75;2.55;;;23.60;45.50;;;;;;5026986;28;20229;-43
2021/09/04 02:50:06;;;;;;;2.95;2.65;;;23.60;45.50;;;;;;5026676;28;20199;-46
2021/09/04 02:52:33;;;;;;;3.55;2.40;;;23.60;45.50;;;;;;5032790;28;20211;-39
2021/09/04 02:54:59;;;;;;;2.63;2.42;;;23.70;45.60;;;;;;5032288;28;20203;-39
2021/09/04 02:57:25;;;;;;;2.75;2.38;;;23.60;45.50;;;;;;5032885;28;20233;-43
2021/09/04 02:59:52;;;;;;;2.60;2.40;;;23.60;45.50;;;;;;5029106;28;20210;-41
2021/09/04 03:02:18;;;;;;;3.25;2.33;;;23.60;45.50;;;;;;5021623;28;20199;-48
2021/09/04 03:04:45;;;;;;;2.65;2.45;;;23.60;45.50;;;;;;5030840;28;20209;-44
2021/09/04 03:07:12;;;;;;;2.90;2.65;;;23.60;45.50;;;;;;5032105;28;20326;-47
2021/09/04 03:09:38;;;;;;;3.17;2.50;;;23.60;45.50;;;;;;5031551;28;20201;-42
2021/09/04 03:12:04;;;;;;;2.60;2.40;;;23.60;45.40;;;;;;5031970;28;20203;-48
2021/09/04 03:14:31;;;;;;;2.30;2.10;;;23.60;45.50;;;;;;5030661;28;20203;-43
2021/09/04 03:16:58;;;;;;;3.33;2.42;;;23.60;45.50;;;;;;5031550;28;20233;-46
2021/09/04 03:19:24;;;;;;;2.40;2.20;;;23.60;45.50;;;;;;5031692;28;20289;-51
2021/09/04 03:21:51;;;;;;;2.72;2.53;;;23.60;45.50;;;;;;5032688;28;20205;-51
2021/09/04 03:24:17;;;;;;;2.65;2.45;;;23.60;46.20;;;;;;5028941;28;20212;-46
2021/09/04 03:26:43;;;;;;;3.00;2.70;;;23.60;45.50;;;;;;5032448;28;20226;-48
2021/09/04 03:29:10;;;;;;;2.60;2.40;;;23.60;45.40;;;;;;5030972;28;20214;-43
2021/09/04 03:31:36;;;;;;;2.60;2.40;;;23.60;45.50;;;;;;5032464;28;20225;-47
2021/09/04 03:34:03;;;;;;;2.60;2.38;;;23.60;45.50;;;;;;5031427;28;20226;-39
2021/09/04 03:36:29;;;;;;;2.70;2.50;;;23.60;45.50;;;;;;5032174;28;20220;-43
2021/09/04 03:38:56;;;;;;;3.15;2.60;;;23.60;45.50;;;;;;5030577;28;20202;-40
2021/09/04 03:41:22;;;;;;;3.53;2.80;;;23.60;45.40;;;;;;5031449;28;20202;-41
2021/09/04 03:43:48;;;;;;;3.15;2.88;;;23.60;45.50;;;;;;5030254;28;20206;-41
2021/09/04 03:46:15;;;;;;;2.67;2.47;;;23.60;45.40;;;;;;5032181;28;20234;-43
2021/09/04 03:48:41;;;;;;;2.40;2.20;;;23.60;45.50;;;;;;5031238;28;20206;-42
2021/09/04 03:51:08;;;;;;;2.03;1.92;;;23.60;45.40;;;;;;5029976;28;20229;-42
2021/09/04 03:53:34;;;;;;;2.45;2.25;;;23.60;45.40;;;;;;5031790;28;20210;-49
2021/09/04 03:56:01;;;;;;;3.03;2.83;;;23.60;45.40;;;;;;5030184;28;20222;-46
2021/09/04 03:58:27;;;;;;;2.50;2.30;;;23.60;45.40;;;;;;5032131;28;20213;-47
2021/09/04 04:00:54;;;;;;;2.65;2.40;;;23.60;45.40;;;;;;5030363;28;20216;-50
2021/09/04 04:03:20;;;;;;;2.47;2.28;;;23.60;45.40;;;;;;5032003;28;20214;-48
2021/09/04 04:05:46;;;;;;;2.78;2.58;;;23.60;45.40;;;;;;5029418;28;20226;-42
2021/09/04 04:08:13;;;;;;;2.40;2.20;;;23.60;45.40;;;;;;5032303;28;20234;-42
2021/09/04 04:10:40;;;;;;;2.55;2.35;;;23.60;45.40;;;;;;5030259;28;20195;-43
2021/09/04 04:13:07;;;;;;;2.80;2.60;;;23.60;45.40;;;;;;5031857;28;20199;-40
2021/09/04 04:15:33;;;;;;;2.45;2.15;;;23.60;45.40;;;;;;5030035;28;20226;-41
2021/09/04 04:18:00;;;;;;;2.30;2.10;;;23.60;45.40;;;;;;5031664;28;20285;-41
2021/09/04 04:20:26;;;;;;;2.60;2.40;;;23.60;45.40;;;;;;5028312;28;20202;-42
2021/09/04 04:22:53;;;;;;;2.55;2.35;;;23.60;45.40;;;;;;5031317;28;20213;-43
2021/09/04 04:25:19;;;;;;;3.25;2.88;;;23.60;45.40;;;;;;5030563;28;20315;-41
2021/09/04 04:27:46;;;;;;;2.90;2.70;;;23.60;45.40;;;;;;5031470;28;20229;-41
2021/09/04 04:30:12;;;;;;;2.50;2.30;;;23.60;45.40;;;;;;5030187;28;20205;-42
2021/09/04 04:32:38;;;;;;;2.95;2.70;;;23.60;45.40;;;;;;5022756;28;20204;-43
2021/09/04 04:35:05;;;;;;;2.63;2.42;;;23.60;45.40;;;;;;5030352;28;20230;-41
2021/09/04 04:37:31;;;;;;;2.45;2.25;;;23.60;45.30;;;;;;5030241;28;20194;-42
2021/09/04 04:39:58;;;;;;;2.88;2.58;;;23.60;45.30;;;;;;5030745;28;20202;-41
2021/09/04 04:42:24;;;;;;;2.45;2.25;;;23.60;45.30;;;;;;5029775;28;20293;-40
2021/09/04 04:44:51;;;;;;;2.40;2.20;;;23.60;45.40;;;;;;5030665;28;20601;-46
2021/09/04 04:47:17;;;;;;;3.17;2.38;;;23.60;45.40;;;;;;5030911;28;20241;-46
2021/09/04 04:49:43;;;;;;;2.63;2.42;;;23.60;45.50;;;;;;5029806;28;20536;-46
2021/09/04 04:52:10;;;;;;;2.33;2.13;;;23.60;45.50;;;;;;5031028;28;20575;-43
2021/09/04 04:54:36;;;;;;;2.47;2.28;;;23.60;45.40;;;;;;5029691;28;20853;-39
2021/09/04 04:57:04;;;;;;;2.50;2.30;;;23.60;45.40;;;;;;5030716;28;20677;-41
2021/09/04 04:59:31;;;;;;;2.22;2.03;;;23.60;45.40;;;;;;5029197;28;20229;-39
2021/09/04 05:01:57;;;;;;;2.83;2.60;;;23.60;45.40;;;;;;5031336;28;20206;-40
2021/09/04 05:04:24;;;;;;;2.70;2.50;;;23.60;45.40;;;;;;5031248;28;20203;-41
2021/09/04 05:06:50;;;;;;;2.47;2.28;;;23.60;45.40;;;;;;5029033;28;20205;-39
2021/09/04 05:09:16;;;;;;;2.13;1.92;;;23.60;45.40;;;;;;5030965;28;20212;-39
2021/09/04 05:11:43;;;;;;;2.00;1.90;;;23.60;45.40;;;;;;5029382;28;20251;-39
2021/09/04 05:14:09;;;;;;;2.58;2.38;;;23.60;45.40;;;;;;5031236;28;20207;-41
2021/09/04 05:16:36;;;;;;;2.40;2.20;;;23.60;45.40;;;;;;5021594;28;20229;-40
2021/09/04 05:19:02;;;;;;;2.67;2.38;;;23.60;45.40;;;;;;5029704;28;20206;-42
2021/09/04 05:21:29;;;;;;;2.35;2.15;;;23.60;45.40;;;;;;5029955;28;20301;-41
2021/09/04 05:23:55;;;;;;;2.70;2.50;;;23.60;45.40;;;;;;5030987;28;20214;-39
2021/09/04 05:26:21;;;;;;;2.47;2.28;;;23.60;45.40;;;;;;5029750;28;20224;-47
2021/09/04 05:28:48;;;;;;;2.78;2.58;;;23.60;45.40;;;;;;5030401;28;20408;-42
2021/09/04 05:31:14;;;;;;;2.60;2.33;;;23.60;45.30;;;;;;5029168;28;20198;-40
2021/09/04 05:33:41;;;;;;;5.60;2.30;;;23.60;45.30;;;;;;5030760;28;20210;-39
2021/09/04 05:36:08;;;;;;;2.50;2.30;;;23.60;45.30;;;;;;5033757;28;20222;-40
2021/09/04 05:38:34;;;;;;;3.38;2.47;;;23.60;45.30;;;;;;5034870;28;20214;-46
2021/09/04 05:41:01;;;;;;;2.60;2.40;;;23.60;45.30;;;;;;5033096;28;20203;-45
2021/09/04 05:43:27;;;;;;;4.68;2.45;;;23.60;45.30;;;;;;5032777;28;20241;-39
2021/09/04 05:45:53;;;;;;;2.80;2.60;;;23.60;45.30;;;;;;5033074;28;20241;-41
2021/09/04 05:48:20;;;;;;;2.60;2.28;;;23.60;45.30;;;;;;5033626;28;20256;-41
2021/09/04 05:50:46;;;;;;;3.20;2.15;;;23.60;45.30;;;;;;5033963;28;20578;-42
2021/09/04 05:53:13;;;;;;;2.33;2.20;;;23.60;45.30;;;;;;5034274;28;20570;-44
2021/09/04 05:55:39;;;;;;;2.60;2.40;;;23.60;45.30;;;;;;5031868;28;20593;-41
2021/09/04 05:58:06;;;;;;;2.60;2.40;;;23.60;45.30;;;;;;5014634;28;20234;-43
2021/09/04 06:00:32;;;;;;;2.90;2.60;;;23.60;45.30;;;;;;5030490;28;20337;-41
2021/09/04 06:02:58;;;;;;;2.60;2.40;;;23.60;45.30;;;;;;5033436;28;20201;-53
2021/09/04 06:05:25;;;;;;;2.58;2.38;;;23.60;45.30;;;;;;5020057;28;20219;-46
2021/09/04 06:07:52;;;;;;;3.42;2.33;;;23.60;45.30;;;;;;5028760;28;20226;-43
2021/09/04 06:10:18;;;;;;;2.47;2.28;;;23.60;45.30;;;;;;5033209;28;20229;-46
2021/09/04 06:12:45;;;;;;;3.00;2.70;;;23.60;45.30;;;;;;5032604;28;20202;-39
2021/09/04 06:15:11;;;;;;;2.60;2.40;;;23.60;45.30;;;;;;5031749;28;20309;-42
2021/09/04 06:17:37;;;;;;;2.20;2.00;;;23.60;45.30;;;;;;5031771;28;20202;-41
2021/09/04 06:20:04;;;;;;;3.38;2.28;;;23.60;45.30;;;;;;5032374;28;20294;-51
2021/09/04 06:22:30;;;;;;;2.40;2.20;;;23.60;45.30;;;;;;5033374;28;20202;-45
2021/09/04 06:24:57;;;;;;;2.45;2.25;;;23.60;45.30;;;;;;5032806;28;20302;-40
2021/09/04 06:27:23;;;;;;;2.50;2.20;;;23.60;45.30;;;;;;5032657;28;20328;-48
2021/09/04 06:29:50;;;;;;;2.53;2.33;;;23.60;45.20;;;;;;5033238;28;20567;-41
2021/09/04 06:32:16;;;;;;;2.55;2.33;;;23.60;45.20;;;;;;5032654;28;20605;-40
2021/09/04 06:34:43;;;;;;;2.30;2.10;;;23.60;45.20;;;;;;5033111;28;20556;-44
2021/09/04 06:37:09;;;;;;;2.88;2.30;;;23.60;45.20;;;;;;5031664;28;20591;-41
2021/09/04 06:39:35;;;;;;;2.58;2.38;;;23.60;45.20;;;;;;5031941;28;20703;-44
2021/09/04 06:42:02;;;;;;;3.83;2.40;;;23.60;45.20;;;;;;5019745;28;20254;-47
2021/09/04 06:44:28;;;;;;;2.30;2.10;;;23.60;45.20;;;;;;5017578;28;20582;-43
2021/09/04 06:46:55;;;;;;;3.60;2.60;;;23.60;45.40;;;;;;5017375;28;20209;-45
2021/09/04 06:49:21;;;;;;;3.17;2.22;;;23.60;45.40;;;;;;5029145;28;20234;-42
2021/09/04 06:51:48;;;;;;;2.50;2.17;;;23.60;45.50;;;;;;5030975;28;20203;-39
2021/09/04 06:54:14;;;;;;;2.90;2.20;;;23.60;45.50;;;;;;5014304;28;20211;-40
2021/09/04 06:56:41;;;;;;;3.72;2.25;;;23.60;45.50;;;;;;5016509;28;20293;-44
2021/09/04 06:59:10;;;;;;;2.65;2.28;;;23.60;45.50;;;;;;5031759;28;20224;-49
2021/09/04 07:01:36;;;;;;;3.78;2.17;;;23.60;45.50;;;;;;5032275;28;20202;-39
2021/09/04 07:04:03;;;;;;;7.13;2.50;;;23.60;45.50;;;;;;5033226;28;20221;-41
2021/09/04 07:06:29;;;;;;;5.10;2.22;;;23.60;45.70;;;;;;5031979;28;20541;-42
2021/09/04 07:08:56;;;;;;;2.40;2.20;;;23.60;45.70;;;;;;5032451;28;20240;-41
2021/09/04 07:11:22;;;;;;;4.10;2.40;;;23.70;45.70;;;;;;5031337;28;20198;-41
2021/09/04 07:13:49;;;;;;;2.60;2.40;;;23.60;45.70;;;;;;5031439;28;20202;-41
2021/09/04 07:16:15;;;;;;;4.25;2.50;;;23.70;45.70;;;;;;5031368;28;20195;-44
2021/09/04 07:18:42;;;;;;;4.25;2.63;;;23.70;46.20;;;;;;5031868;28;20206;-45
2021/09/04 07:21:08;;;;;;;3.95;2.78;;;23.70;46.10;;;;;;5029813;28;20221;-40
2021/09/04 07:23:35;;;;;;;5.28;2.80;;;23.80;46.20;;;;;;5032159;28;20213;-44
2021/09/04 07:26:01;;;;;;;5.60;2.90;;;23.70;46.00;;;;;;5030461;28;20272;-41
2021/09/04 07:28:28;;;;;;;7.22;3.22;;;23.70;46.10;;;;;;5016447;28;20252;-40
2021/09/04 07:30:54;;;;;;;10.40;4.32;;;23.80;47.50;;;;;;5025166;28;20570;-41
2021/09/04 07:33:21;;;;;;;11.15;4.63;;;23.80;48.80;;;;;;5031940;28;20225;-43
2021/09/04 07:35:47;;;;;;;14.98;4.53;;;23.90;50.20;;;;;;5025218;28;20620;-45
2021/09/04 07:38:14;;;;;;;10.30;4.75;;;24.00;50.50;;;;;;5029254;28;20238;-43
2021/09/04 07:40:40;;;;;;;10.25;4.22;;;24.00;50.00;;;;;;5030092;28;20201;-45
2021/09/04 07:43:08;;;;;;;11.15;4.90;;;24.00;51.00;;;;;;5031238;28;20203;-41
2021/09/04 07:45:34;;;;;;;15.40;5.72;;;24.00;51.00;;;;;;5031693;28;20339;-45
2021/09/04 07:48:00;;;;;;;14.25;5.40;;;24.00;52.20;;;;;;5031630;28;20237;-46
2021/09/04 07:50:27;;;;;;;14.90;5.25;;;24.00;52.00;;;;;;5029937;28;20203;-43
2021/09/04 07:52:53;;;;;;;15.30;5.70;;;24.10;52.40;;;;;;5031324;28;21977;-45
2021/09/04 07:55:20;;;;;;;15.65;4.82;;;24.10;52.70;;;;;;5029601;28;20222;-42
2021/09/04 07:57:46;;;;;;;13.30;6.65;;;24.10;53.10;;;;;;5029937;28;20238;-42
2021/09/04 08:00:13;;;;;;;10.52;7.95;;;24.10;51.00;;;;;;5020699;28;20211;-45
2021/09/04 08:02:39;;;;;;;11.40;7.80;;;23.50;46.50;;;;;;5030055;28;20222;-42
2021/09/04 08:05:05;;;;;;;8.85;7.63;;;22.80;46.70;;;;;;5029009;28;20218;-40
2021/09/04 08:07:32;;;;;;;9.88;7.57;;;22.40;47.40;;;;;;5029328;28;20216;-45
2021/09/04 08:09:58;;;;;;;8.70;7.47;;;22.40;48.50;;;;;;5026397;28;20203;-40
2021/09/04 08:12:25;;;;;;;10.05;7.88;;;22.40;47.40;;;;;;5027416;28;20642;-43
2021/09/04 08:14:51;;;;;;;9.38;8.05;;;22.50;47.30;;;;;;5029517;28;20222;-43
2021/09/04 08:17:18;;;;;;;8.50;7.70;;;22.00;45.90;;;;;;5030510;28;20650;-43
2021/09/04 08:19:44;;;;;;;8.30;6.93;;;21.90;46.80;;;;;;5031098;28;20816;-47
2021/09/04 08:22:11;;;;;;;7.57;6.47;;;22.10;47.70;;;;;;5025023;28;20209;-40
2021/09/04 08:24:37;;;;;;;8.15;5.65;;;22.30;48.60;;;;;;5024295;28;20223;-43
2021/09/04 08:27:03;;;;;;;6.43;5.82;;;22.60;48.60;;;;;;5030571;28;20202;-44
2021/09/04 08:29:30;;;;;;;8.13;5.95;;;22.70;49.20;;;;;;5029558;28;20848;-43
2021/09/04 08:31:56;;;;;;;7.45;6.47;;;22.90;49.60;;;;;;5030040;28;20226;-46
2021/09/04 08:34:23;;;;;;;7.15;6.18;;;23.00;50.00;;;;;;5028242;28;20222;-42
2021/09/04 08:36:49;;;;;;;7.70;6.40;;;23.10;50.20;;;;;;5018540;28;20211;-44
2021/09/04 08:39:16;;;;;;;11.05;6.20;;;23.20;50.20;;;;;;5027537;28;20210;-48
2021/09/04 08:41:42;;;;;;;6.45;5.70;;;23.20;50.10;;;;;;5017209;28;20199;-46
2021/09/04 08:44:09;;;;;;;7.10;5.45;;;23.30;50.30;;;;;;5025738;28;20214;-50
2021/09/04 08:46:35;;;;;;;6.78;5.97;;;23.30;50.00;;;;;;5028456;28;20302;-43
2021/09/04 08:49:02;;;;;;;7.18;6.13;;;23.40;50.50;;;;;;5028604;28;20860;-41
2021/09/04 08:51:28;;;;;;;7.32;6.07;;;23.40;50.40;;;;;;5031847;28;20285;-46
2021/09/04 08:53:54;;;;;;;6.63;5.55;;;23.40;50.40;;;;;;5026626;28;20309;-43
2021/09/04 08:56:21;;;;;;;7.05;5.97;;;23.50;50.60;;;;;;5029295;28;20201;-46
2021/09/04 08:58:47;;;;;;;6.43;5.43;;;23.50;50.00;;;;;;5030722;28;20202;-43
2021/09/04 09:01:14;;;;;;;6.82;5.75;;;23.50;50.40;;;;;;5025494;28;20198;-42
2021/09/04 09:03:40;;;;;;;7.85;6.00;;;23.50;50.40;;;;;;5044939;28;20225;-43
2021/09/04 09:06:07;;;;;;;7.30;6.15;;;23.50;50.50;;;;;;5020504;28;20677;-43
2021/09/04 09:08:33;;;;;;;6.70;5.97;;;23.50;50.30;;;;;;5031846;28;20341;-42
2021/09/04 09:11:00;;;;;;;6.35;5.45;;;23.50;50.10;;;;;;5034916;28;20574;-47
2021/09/04 09:13:27;;;;;;;6.30;5.57;;;23.50;49.90;;;;;;5035180;28;20230;-41
2021/09/04 09:15:55;;;;;;;5.95;5.35;;;23.50;49.70;;;;;;5035254;28;20658;-40
2021/09/04 09:18:22;;;;;;;6.03;5.43;;;23.50;49.70;;;;;;5033590;28;20301;-41
2021/09/04 09:20:48;;;;;;;5.88;5.28;;;23.50;49.60;;;;;;5034757;28;20213;-45
2021/09/04 09:23:15;;;;;;;5.65;4.97;;;23.50;49.60;;;;;;5035439;28;20214;-41
2021/09/04 09:25:41;;;;;;;6.03;5.38;;;23.50;49.50;;;;;;5035092;28;20301;-42
2021/09/04 09:28:09;;;;;;;6.25;5.63;;;23.50;49.40;;;;;;5034982;28;20234;-44
2021/09/04 09:30:36;;;;;;;5.88;5.25;;;23.50;49.30;;;;;;5034846;28;20572;-41
2021/09/04 09:33:02;;;;;;;7.05;5.43;;;23.50;49.40;;;;;;5035747;28;20718;-40
2021/09/04 09:35:29;;;;;;;7.28;5.00;;;23.50;49.30;;;;;;5047936;28;20289;-40
2021/09/04 09:37:55;;;;;;;5.90;5.30;;;23.50;49.20;;;;;;5046973;28;20297;-42
2021/09/04 09:40:22;;;;;;;6.38;5.10;;;23.60;49.40;;;;;;5015562;28;20225;-40
2021/09/04 09:42:48;;;;;;;6.80;4.95;;;23.50;49.30;;;;;;5015347;28;20210;-46
2021/09/04 09:45:15;;;;;;;5.20;4.72;;;23.60;49.40;;;;;;5034369;28;20227;-44
2021/09/04 09:47:42;;;;;;;5.45;4.97;;;23.60;49.30;;;;;;5034603;28;20238;-40
2021/09/04 09:50:08;;;;;;;5.55;5.05;;;23.60;49.10;;;;;;5033951;28;20238;-48
2021/09/04 09:52:35;;;;;;;4.82;4.43;;;23.60;49.20;;;;;;5035169;28;20606;-41
2021/09/04 09:55:01;;;;;;;4.93;4.43;;;23.60;49.10;;;;;;5034365;28;20593;-43
2021/09/04 09:57:28;;;;;;;5.38;4.88;;;23.60;49.10;;;;;;5034355;28;20214;-45
2021/09/04 09:59:54;;;;;;;5.30;4.80;;;23.60;49.10;;;;;;5033904;28;20301;-40
2021/09/04 10:02:20;;;;;;;5.78;5.18;;;23.60;49.10;;;;;;5014844;28;20225;-40
2021/09/04 10:04:47;;;;;;;5.88;5.38;;;23.60;48.90;;;;;;5014824;28;20590;-51
2021/09/04 10:07:13;;;;;;;5.45;4.95;;;23.60;48.90;;;;;;5024293;28;20205;-40
2021/09/04 10:09:40;;;;;;;5.50;5.00;;;23.60;49.60;;;;;;5034006;28;20230;-44
2021/09/04 10:12:07;;;;;;;5.47;4.88;;;23.60;48.90;;;;;;5033346;28;20206;-40
2021/09/04 10:14:33;;;;;;;5.80;5.13;;;23.60;48.40;;;;;;5013976;28;20226;-42
2021/09/04 10:17:00;;;;;;;4.57;4.03;;;23.60;48.70;;;;;;5028917;28;20201;-40
2021/09/04 10:19:26;;;;;;;5.93;4.50;;;23.60;48.50;;;;;;5021607;28;20210;-40
2021/09/04 10:21:52;;;;;;;5.90;5.30;;;23.60;48.80;;;;;;5028776;28;20203;-40
2021/09/04 10:24:19;;;;;;;4.50;4.10;;;23.60;48.70;;;;;;5030990;28;20233;-39
2021/09/04 10:26:45;;;;;;;5.55;4.18;;;23.70;48.50;;;;;;5029767;28;20663;-42
2021/09/04 10:29:12;;;;;;;5.72;4.90;;;23.60;48.40;;;;;;5023816;28;20235;-38
2021/09/04 10:31:38;;;;;;;5.32;4.65;;;23.60;49.20;;;;;;5027004;28;20195;-40
2021/09/04 10:34:05;;;;;;;5.43;4.93;;;23.60;48.70;;;;;;5031747;28;20225;-43
2021/09/04 10:36:31;;;;;;;5.80;4.60;;;23.70;49.00;;;;;;5030090;28;20198;-40
2021/09/04 10:38:58;;;;;;;5.38;4.57;;;23.70;49.30;;;;;;5031375;28;20297;-41
2021/09/04 10:41:24;;;;;;;5.63;5.13;;;23.70;49.70;;;;;;5032484;28;20206;-40
2021/09/04 10:43:51;;;;;;;5.50;5.00;;;23.80;49.80;;;;;;5030832;28;20226;-45
2021/09/04 10:46:17;;;;;;;5.25;4.38;;;23.70;49.70;;;;;;5030850;28;20237;-40
2021/09/04 10:48:43;;;;;;;5.03;4.50;;;23.80;50.10;;;;;;5028940;28;20665;-45
2021/09/04 10:51:10;;;;;;;4.95;4.45;;;23.80;50.00;;;;;;5029927;28;20681;-40
2021/09/04 10:53:36;;;;;;;6.03;4.80;;;23.80;50.30;;;;;;5030341;28;20317;-42
2021/09/04 10:56:03;;;;;;;6.28;4.68;;;23.90;50.70;;;;;;5027427;28;20216;-39
2021/09/04 10:58:29;;;;;;;4.47;4.07;;;23.90;50.30;;;;;;5029872;28;20545;-46
2021/09/04 11:00:56;;;;;;;6.03;4.72;;;23.90;50.30;;;;;;5031614;28;20599;-42
2021/09/04 11:03:22;;;;;;;7.68;4.85;;;23.90;50.20;;;;;;5031705;28;20333;-42
2021/09/04 11:05:49;;;;;;;7.22;4.70;;;23.90;50.10;;;;;;5032901;28;20281;-40
2021/09/04 11:08:15;;;;;;;8.30;5.28;;;23.90;50.00;;;;;;5031926;28;20218;-40
2021/09/04 11:10:41;;;;;;;7.20;5.40;;;23.90;50.20;;;;;;5031765;28;20191;-43
2021/09/04 11:13:08;;;;;;;9.40;5.78;;;23.90;50.20;;;;;;5028403;28;20227;-40
2021/09/04 11:15:34;;;;;;;7.82;5.75;;;23.80;50.20;;;;;;5028712;28;20195;-40
2021/09/04 11:18:01;;;;;;;8.90;5.53;;;23.80;49.70;;;;;;5031351;28;20722;-39
2021/09/04 11:20:28;;;;;;;7.50;5.20;;;23.80;49.70;;;;;;5031275;28;20202;-41
2021/09/04 11:22:54;;;;;;;10.57;5.43;;;23.80;49.70;;;;;;5031635;28;20309;-43
2021/09/04 11:25:21;;;;;;;7.07;5.70;;;23.80;49.90;;;;;;5032209;28;20265;-46
2021/09/04 11:27:47;;;;;;;6.68;4.80;;;23.80;49.90;;;;;;5019377;28;20215;-40
2021/09/04 11:30:14;;;;;;;6.35;4.65;;;23.80;49.50;;;;;;5031830;28;20226;-45
2021/09/04 11:32:40;;;;;;;7.53;4.57;;;23.80;49.60;;;;;;5030960;28;20768;-43
2021/09/04 11:35:07;;;;;;;6.38;4.90;;;23.80;49.40;;;;;;5032874;28;20198;-42
2021/09/04 11:37:33;;;;;;;5.43;4.90;;;23.80;49.50;;;;;;5032523;28;20195;-44
2021/09/04 11:40:00;;;;;;;7.72;5.57;;;23.80;49.20;;;;;;5031481;28;20206;-48
2021/09/04 11:42:27;;;;;;;6.75;5.15;;;23.80;49.40;;;;;;5032729;28;20226;-42
2021/09/04 11:44:53;;;;;;;6.80;5.50;;;23.80;49.90;;;;;;5031269;28;20659;-43
2021/09/04 11:47:20;;;;;;;6.57;5.30;;;23.80;49.10;;;;;;5031642;28;20199;-46
2021/09/04 11:49:47;;;;;;;7.20;5.28;;;23.80;48.90;;;;;;5032664;28;20226;-40
2021/09/04 11:52:13;;;;;;;6.88;5.07;;;23.80;48.90;;;;;;5032464;28;20219;-40
2021/09/04 11:54:40;;;;;;;5.90;5.28;;;23.80;48.90;;;;;;5029739;28;20226;-41
2021/09/04 11:57:07;;;;;;;8.25;5.05;;;23.80;49.20;;;;;;5032005;28;20202;-40
2021/09/04 11:59:34;;;;;;;8.98;6.03;;;23.80;49.30;;;;;;5031181;28;20215;-44
2021/09/04 12:02:00;;;;;;;7.80;5.82;;;23.80;49.20;;;;;;5031328;28;20225;-41
2021/09/04 12:04:26;;;;;;;6.00;5.50;;;23.80;49.30;;;;;;5029509;28;20202;-44
2021/09/04 12:06:53;;;;;;;6.30;5.30;;;23.80;49.10;;;;;;5022732;28;20213;-39
2021/09/04 12:09:20;;;;;;;7.25;4.88;;;23.80;49.10;;;;;;5030744;28;20249;-45
2021/09/04 12:11:46;;;;;;;6.25;4.97;;;23.80;49.00;;;;;;5030518;28;20584;-42
2021/09/04 12:14:12;;;;;;;7.72;5.45;;;23.80;48.90;;;;;;5031274;28;20234;-41
2021/09/04 12:16:39;;;;;;;6.97;5.25;;;23.80;49.20;;;;;;5030732;28;20285;-47
2021/09/04 12:19:05;;;;;;;5.97;4.90;;;23.80;49.20;;;;;;5030137;28;20209;-44
2021/09/04 12:21:36;;;;;;;8.48;5.30;;;23.80;49.20;;;;;;5030002;28;20222;-45
2021/09/04 12:24:02;;;;;;;6.32;4.93;;;23.80;49.10;;;;;;5020232;28;20203;-41
2021/09/04 12:26:29;;;;;;;6.03;4.82;;;23.80;49.10;;;;;;5031452;28;20237;-45
2021/09/04 12:28:55;;;;;;;5.53;5.03;;;23.80;49.30;;;;;;5019536;28;20762;-47
2021/09/04 12:31:21;;;;;;;6.32;4.35;;;23.80;49.00;;;;;;5030747;28;20706;-42
2021/09/04 12:33:48;;;;;;;5.20;4.70;;;23.80;49.00;;;;;;5029249;28;20686;-42
2021/09/04 12:36:14;;;;;;;7.18;4.75;;;23.80;48.90;;;;;;5031478;28;20659;-43
2021/09/04 12:38:41;;;;;;;5.35;4.45;;;23.80;48.80;;;;;;5030534;28;20252;-42
2021/09/04 12:41:07;;;;;;;7.55;5.00;;;23.80;48.90;;;;;;5029101;28;20897;-43